Gonzalo Valverde

Olheiro-Chefe - Danubio
3 Fev 2028
Quinta-feira
Processo

Personalidade

Adaptabilidade (12) Ambição (18) Controvérsia (7) Lealdade (18) Pressão (3) Profissionalismo (1) Espírito Esportivo (15) Temperamento (6)

Perfil

Estilo de Treinamento Democrático
Licença Continental A
Determinação 8
Gestão de Pessoas 10
Motivação 12
Disciplina 5
Satisfação no Trabalho
100%
Fadiga
0%
Função Olheiro-Chefe
Salário 38.2K p/s
Contrato 14.03.2030

Desempenho

Comportamento Bom
Eficácia do Treinamento
48%
Desenvolvimento do Jogador
35%
Prevenção de Lesões
50%
Implementação Tática
45%

Eventos Recentes

Participou de uma reunião de recrutamento agora
Participou de uma reunião de recrutamento agora
Recomendou um alvo de transferência agora
Recomendou um alvo de transferência agora
Recomendou um alvo de transferência agora
Recomendou um alvo de transferência 7d atrás
Recomendou um alvo de transferência 7d atrás
Recomendou um alvo de transferência 7d atrás

Monitorando agora

174
Jogador Clube Status Habilidade Confiança Observado Última observação Último voto
Aurélien Scheidler Tondela Ativo 119 / 119 67% 1 01.12.2027 Aprovar
Luciano Batista Cerrito Ativo 83 / 106 58% 1 01.12.2027 Aprovar
Benjamín Núñez Nacional Ativo 90 / 106 58% 1 28.06.2027 -
Dion Beljo Standard Liege Negociando 131 / 132 66% 1 01.06.2027 Aprovar
Jefry Zapata Danubio Negociando 118 / 118 67% 1 01.06.2027 Aprovar
Esteban Obregón Liverpool Montevideo Perdido 114 / 116 71% 1 01.06.2027 Aprovar
Khama Dolly Utrecht Negociando 123 / 124 67% 1 01.06.2027 Aprovar
Job Ochieng Real Sociedad Ativo 96 / 96 40% 5 30.05.2027 -
Mees Rijks Bristol Rovers Ativo 106 / 125 40% 3 29.05.2027 -
Jaze Kabia Grimsby Town Ativo 106 / 79 40% 1 29.05.2027 -
Lorent Tolaj Plymouth Argyle Ativo 132 / 128 40% 3 28.05.2027 -
Ekain Orobengoa Real Sociedad Ativo 111 / 102 40% 2 27.05.2027 -
Luis Vázquez Birmingham Ativo 132 / 123 40% 2 26.05.2027 -
Joe Gelhardt Hull City Ativo 131 / 117 40% 2 24.05.2027 -
Christian Saydee Wigan Athletic Ativo 105 / 98 40% 3 23.05.2027 -
Harry Leonard Peterborough United Ativo 124 / 94 40% 1 23.05.2027 -
Franz-Ethan Meichtry Genoa Ativo 113 / 116 40% 1 23.05.2027 -
Will Lankshear Middlesbrough Ativo 130 / 144 40% 3 21.05.2027 -
Ethan Williams Peterborough United Ativo 130 / 136 40% 3 21.05.2027 -
Iwan Morgan Grimsby Town Ativo 124 / 102 40% 2 19.05.2027 -
Leo Castledine Middlesbrough Ativo 141 / 116 40% 2 19.05.2027 -
Yousef Salech Cardiff City Ativo 124 / 134 40% 1 19.05.2027 -
Alphadjo Cissé Como Ativo 123 / 132 40% 1 19.05.2027 -
Richard Koné Queens Park Rangers Ativo 133 / 138 40% 3 16.05.2027 -
Kelly Saravanan Salford City Ativo 94 / 122 40% 1 16.05.2027 -
Morgan Whittaker Middlesbrough Ativo 140 / 149 40% 6 14.05.2027 -
Mandla Mahlangu Ajax Cape Town Ativo 98 / 123 40% 1 13.05.2027 -
Robert Mizo Ashanti Gold Ativo 115 / 94 40% 3 12.05.2027 -
Lee Bonis Chesterfield Ativo 109 / 97 40% 1 12.05.2027 -
Tommy Conway Middlesbrough Ativo 116 / 128 40% 3 11.05.2027 -
Cameron Archer Southampton Ativo 131 / 134 40% 1 11.05.2027 -
Shea Lacey Wolverhampton Ativo 120 / 143 40% 2 10.05.2027 -
Josh King Chelsea Ativo 147 / 149 40% 1 10.05.2027 -
Zeki Amdouni Burnley Ativo 147 / 130 40% 1 07.05.2027 -
Ilyas Ansah Hull City Ativo 148 / 143 40% 6 03.05.2027 -
Caleb Yirenkyi Coventry City Ativo 148 / 138 40% 1 03.05.2027 -
Gilberto Mora Atlético Madrid Ativo 114 / 140 40% 1 03.05.2027 -
Santiago Pierotti Lecce Ativo 128 / 112 40% 1 02.05.2027 -
Leandro Martins Benfica Ativo 100 / 115 40% 1 01.05.2027 -
Oscar Schwartau Norwich City Ativo 137 / 131 40% 1 28.04.2027 -
Christ Inao Oulaï Fiorentina Ativo 147 / 155 40% 1 23.04.2027 -
Matías Gómez Granada Ativo 102 / 118 40% 1 23.04.2027 -
Joel McGregor Swindon Town Ativo 91 / 82 40% 1 22.04.2027 -
Edvin Austbø West Ham United Ativo 128 / 151 40% 1 20.04.2027 -
Thulani Dala Platinum Stars Ativo 86 / 84 40% 1 19.04.2027 -
Rhian Brewster Oxford United Ativo 108 / 139 40% 1 18.04.2027 -
Abu Kamara Portsmouth Ativo 107 / 106 40% 1 16.04.2027 -
Dom Ballard Leyton Orient Ativo 119 / 106 40% 2 13.04.2027 -
Etiosa Ighodaro Kaizer Chiefs Ativo 107 / 118 40% 1 13.04.2027 -
Cian Ashford Cardiff City Ativo 122 / 139 40% 3 11.04.2027 -
Tyrese Campbell Sheffield United Ativo 123 / 138 40% 1 09.04.2027 -
Kasey McAteer Ipswich Town Ativo 139 / 117 40% 1 07.04.2027 -
Tom Cannon Sheffield United Ativo 119 / 144 40% 1 06.04.2027 -
Florentino Luís Ipswich Town Ativo 151 / 125 40% 1 06.04.2027 -
Max Bird Birmingham Ativo 118 / 133 40% 2 05.04.2027 -
Finn Azaz Southampton Ativo 123 / 144 40% 2 05.04.2027 -
Carlos Vicente Birmingham Ativo 151 / 158 40% 2 04.04.2027 -
Kwadwo Baah Watford Ativo 132 / 138 40% 1 03.04.2027 -
Giorgi Chakvetadze Watford Ativo 125 / 117 40% 1 29.03.2027 -
Paris Maghoma Norwich City Ativo 118 / 120 40% 2 28.03.2027 -
Mduduzi Shabalala Kaizer Chiefs Ativo 128 / 127 40% 3 28.03.2027 -
Derensili Sanches Fernandes Huddersfield Town Ativo 135 / 106 40% 4 26.03.2027 -
Tyreece Campbell Charlton Athletic Ativo 101 / 124 40% 2 26.03.2027 -
Ollie Tanner Cardiff City Ativo 107 / 102 40% 2 26.03.2027 -
Mohammed Yahaya Great Olympics Ativo 100 / 97 40% 2 23.03.2027 -
Stanley Mills Oxford United Ativo 112 / 132 40% 1 23.03.2027 -
Josh Tymon Swansea City Ativo 119 / 110 40% 1 21.03.2027 -
Scott Twine Bristol City Ativo 117 / 133 40% 2 19.03.2027 -
Isaac Price West Bromwich Albion Ativo 129 / 143 40% 1 19.03.2027 -
Isaiah Jones Luton Town Ativo 123 / 106 40% 4 17.03.2027 -
Nicolò Cambiaghi Bologna Ativo 133 / 129 40% 2 15.03.2027 -
Kwame Opoku Asante Kotoko Ativo 98 / 100 40% 1 13.03.2027 -
Dávid Strelec Middlesbrough Ativo 133 / 143 40% 2 11.03.2027 -
Evidence Makgopa Orlando Pirates Ativo 118 / 104 40% 2 11.03.2027 -
Othmane Maamma Watford Ativo 124 / 146 40% 1 11.03.2027 -
Williams Manyama SuperSport United Ativo 100 / 98 40% 4 10.03.2027 -
Isaac Essien WAFA Ativo 94 / 112 40% 3 09.03.2027 -
Daniel Kyerewaa Reading Ativo 113 / 126 40% 3 04.03.2027 -
Aune Heggebø West Bromwich Albion Ativo 137 / 128 40% 1 04.03.2027 -
Ali Ahmed Norwich City Ativo 118 / 139 40% 1 27.02.2027 -
Alex Robertson Cardiff City Ativo 115 / 110 40% 1 27.02.2027 -
Christian Krasnodar Ativo 149 / 133 40% 5 26.02.2027 -
Bradley Fink Wycombe Wanderers Ativo 108 / 126 40% 1 26.02.2027 -
Jack McGlynn Stoke City Ativo 146 / 148 40% 1 24.02.2027 -
Tyler Goodrham Oxford United Ativo 126 / 143 40% 3 22.02.2027 -
Oswin Appollis Orlando Pirates Ativo 123 / 111 40% 2 21.02.2027 -
Ethan Galbraith Swansea City Ativo 120 / 141 40% 1 19.02.2027 -
Harry Clarke Preston Ativo 115 / 118 40% 1 16.02.2027 -
Tom Fellows Southampton Ativo 148 / 112 40% 1 15.02.2027 -
Kwame Poku Queens Park Rangers Ativo 110 / 127 40% 2 13.02.2027 -
Lewis Ferguson Bologna Ativo 158 / 134 40% 1 10.02.2027 -
Kellen Fisher Norwich City Ativo 106 / 117 40% 1 07.02.2027 -
Zeidane Inoussa Swansea City Ativo 128 / 126 40% 1 06.02.2027 -
Zane Albarus Cambridge United Ativo 89 / 100 40% 1 02.02.2027 -
Dylan Lawlor Cardiff City Ativo 105 / 132 40% 1 02.02.2027 -
Xavier Amaechi Plymouth Argyle Ativo 96 / 116 40% 1 02.02.2027 -
Slobodan Tedić Akron Ativo 106 / 125 40% 1 30.01.2027 -
Ali Youssef Apollon Ativo 116 / 137 40% 1 30.01.2027 -
Suleiman Camara Slovan Bratislava Ativo 122 / 133 40% 2 27.01.2027 -
Mathias Jørgensen Blackburn Rovers Ativo 105 / 110 40% 1 27.01.2027 -
Siyanda Ndlovu Bloemfontein Celtic Ativo 108 / 102 40% 1 25.01.2027 -
Jack Diamond Stockport County Ativo 102 / 111 40% 2 24.01.2027 -
José Martínes CSKA 1948 Ativo 102 / 125 40% 1 23.01.2027 -
Enzo Avaro Odd Ativo 120 / 124 40% 4 22.01.2027 -
Ruslan Bezrukov Rubin Ativo 111 / 108 40% 1 19.01.2027 -
Pelle Mattsson Norwich City Ativo 111 / 124 40% 1 17.01.2027 -
Petar Stanić Ludogorets Ativo 141 / 149 40% 1 17.01.2027 -
Brodie Spencer Oxford United Ativo 113 / 109 40% 1 16.01.2027 -
Sonny Carey Charlton Athletic Ativo 109 / 128 40% 1 16.01.2027 -
Million Manhoef Stoke City Ativo 119 / 144 40% 1 14.01.2027 -
Ramiro Ruiz Rodríguez Atlético Tucumán Ativo 128 / 125 40% 2 13.01.2027 -
Eom Ji-Sung Swansea City Ativo 124 / 114 40% 1 11.01.2027 -
Tomás O'Connor Gimnasia y Esgrima Ativo 114 / 137 40% 3 10.01.2027 -
Brayan León Mamelodi Sundowns Ativo 104 / 105 40% 1 10.01.2027 -
Edwin Cerrillo Club America Ativo 112 / 101 40% 1 10.01.2027 -
Rubens Dinamo Moscow Ativo 119 / 137 40% 1 09.01.2027 -
Bongani Mothiba SuperSport United Ativo 92 / 69 40% 1 08.01.2027 -
Niall Ennis Blackpool Ativo 98 / 102 40% 1 08.01.2027 -
Luca Martínez Dupuy Godoy Cruz Ativo 110 / 129 40% 3 05.01.2027 -
Jonás Luna Santa Clara Ativo 112 / 131 40% 2 01.01.2027 -
Jacques Ekomié Wrexham Ativo 132 / 139 40% 1 29.12.2026 -
Mandla Erasmus SuperSport United Ativo 118 / 116 40% 1 29.12.2026 -
Andrés Dieppa Metalurh Zaporizhzhia Ativo 84 / 72 40% 1 28.12.2026 -
Juergen Elitím Bohemians 1905 Ativo 111 / 108 40% 1 24.12.2026 -
Franco Watson Lanús Ativo 127 / 115 40% 1 24.12.2026 -
Lukáš Červ Viktoria Plzen Ativo 123 / 128 40% 1 23.12.2026 -
Sam Bell Bristol City Ativo 115 / 109 40% 1 23.12.2026 -
Juan Manuel Boselli Krasnodar Ativo 126 / 110 40% 1 14.12.2026 -
Augusto Berrondo Tristán Suárez Ativo 100 / 116 40% 1 29.11.2026 -
Pablo Rodríguez Lech Ativo 112 / 124 40% 1 29.11.2026 -
Eren Aydın Zira Ativo 96 / 122 40% 1 28.11.2026 -
Lucas Varaldo Central Córdoba SdE Ativo 117 / 108 40% 1 26.11.2026 -
Misael Sosa Godoy Cruz Ativo 111 / 108 40% 5 24.11.2026 -
Vinko Rozić Istra 1961 Ativo 122 / 108 40% 1 24.11.2026 -
Juan Rocca Gimnasia y Tiro Ativo 114 / 117 40% 2 22.11.2026 -
Santiago Sala Güemes Ativo 112 / 100 40% 1 19.11.2026 -
Themba Ngcobo SuperSport United Ativo 112 / 112 40% 2 18.11.2026 Mais informações
Nicolás Cordero Aldosivi Ativo 119 / 109 40% 3 13.11.2026 -
Agustín Módica Gimnasia y Esgrima Ativo 120 / 123 40% 1 13.11.2026 -
Diego García Malmo FF Ativo 132 / 121 40% 2 12.11.2026 -
Ruben van Bommel Ferencvaros Ativo 128 / 113 40% 1 10.11.2026 -
Bénie Traoré New York City Ativo 110 / 105 40% 1 07.11.2026 -
Ezequiel Almirón Estudiantes Ativo 113 / 120 40% 1 06.11.2026 -
Fernando Martínez Central Córdoba SdE Ativo 118 / 115 40% 1 04.11.2026 -
Tomás González Piast Ativo 132 / 112 40% 1 27.10.2026 -
Dejan Joveljić Seattle Sounders Ativo 116 / 124 40% 1 26.10.2026 -
Sebastián Cocimano Nueva Chicago Ativo 122 / 106 40% 1 25.10.2026 -
Javier Martínez Almirante Brown Ativo 103 / 103 40% 1 23.10.2026 -
Matías Fernández Independiente Rivadavia Ativo 115 / 133 40% 1 21.10.2026 -
Felipe Peña Biafore Lanús Ativo 122 / 133 40% 1 20.10.2026 -
Leandro Lozano Boca Juniors Ativo 129 / 122 40% 1 20.10.2026 -
Samuel Lucero Defensa y Justicia Ativo 118 / 110 40% 2 17.10.2026 -
Rodrigo Herrera Newell's Old Boys Ativo 119 / 115 40% 1 17.10.2026 -
Alexander Díaz Deportivo Riestra Ativo 109 / 114 40% 1 16.10.2026 -
Luca Franco Arsenal Ativo 115 / 100 40% 1 15.10.2026 -
Alan Lescano Argentinos Juniors Ativo 127 / 119 40% 1 13.10.2026 -
Lautaro Gordillo Colegiales Ativo 117 / 116 40% 1 11.10.2026 -
Louis Munteanu DC United Ativo 120 / 122 40% 1 10.10.2026 -
Rafael Navarro St. Louis CITY SC Ativo 112 / 144 40% 1 06.10.2026 -
Maximiliano Rodríguez Huachipato Ativo 117 / 111 40% 1 05.10.2026 -
Iker Benito Queretaro Ativo 135 / 112 40% 1 07.09.2026 -
Eduardo Dos Santos Veracruz Ativo 125 / 109 40% 1 07.09.2026 -
Jorge Morel Cerro Porteno Ativo 119 / 112 40% 1 08.08.2026 -
Agustín Palavecino Cruz Azul Ativo 123 / 115 40% 1 08.08.2026 -
Andrés Colorado Once Caldas Ativo 117 / 107 40% 1 07.08.2026 -
Nicolás Fonseca Leon Ativo 132 / 137 40% 1 06.08.2026 -
Santiago Toloza O'Higgins Ativo 122 / 120 40% 1 06.08.2026 -
Mauricio Isais Pachuca Ativo 100 / 106 40% 1 05.08.2026 -
Francisco González Metilli Belgrano Ativo 134 / 117 40% 1 05.08.2026 -
Sebastián Córdova Pumas UNAM Ativo 124 / 144 40% 1 04.08.2026 -
Justo Giani Universidad Catolica Ativo 129 / 133 40% 1 04.08.2026 -
Jaime Mora Envigado Ativo 91 / 94 40% 1 03.08.2026 -
Joel Godoy Sarmiento Ativo 102 / 114 40% 1 03.08.2026 -
Ian Garguez Palestino Ativo 107 / 113 40% 1 03.08.2026 -